sensor_id;sensor_type;location;lat;lon;timestamp;temperature;humidity
10296;DHT22;5193;51.032;6.356;2023-03-04T00:01:13;2.30;99.90
10296;DHT22;5193;51.032;6.356;2023-03-04T00:03:40;2.30;99.90
10296;DHT22;5193;51.032;6.356;2023-03-04T00:06:05;2.30;99.90
10296;DHT22;5193;51.032;6.356;2023-03-04T00:08:31;2.30;99.90
10296;DHT22;5193;51.032;6.356;2023-03-04T00:10:57;2.30;99.90
10296;DHT22;5193;51.032;6.356;2023-03-04T00:13:22;2.30;99.90
10296;DHT22;5193;51.032;6.356;2023-03-04T00:15:49;2.30;99.90
10296;DHT22;5193;51.032;6.356;2023-03-04T00:18:15;2.30;99.90
10296;DHT22;5193;51.032;6.356;2023-03-04T00:20:41;2.30;99.90
10296;DHT22;5193;51.032;6.356;2023-03-04T00:23:06;2.30;99.90
10296;DHT22;5193;51.032;6.356;2023-03-04T00:25:32;2.30;99.90
10296;DHT22;5193;51.032;6.356;2023-03-04T00:27:58;2.30;99.90
10296;DHT22;5193;51.032;6.356;2023-03-04T00:30:25;2.30;99.90
10296;DHT22;5193;51.032;6.356;2023-03-04T00:32:50;2.40;99.90
10296;DHT22;5193;51.032;6.356;2023-03-04T00:35:16;2.30;99.90
10296;DHT22;5193;51.032;6.356;2023-03-04T00:37:42;2.30;99.90
10296;DHT22;5193;51.032;6.356;2023-03-04T00:40:08;2.30;99.90
10296;DHT22;5193;51.032;6.356;2023-03-04T00:42:34;2.40;99.90
10296;DHT22;5193;51.032;6.356;2023-03-04T00:44:59;2.30;99.90
10296;DHT22;5193;51.032;6.356;2023-03-04T00:47:25;2.40;99.90
10296;DHT22;5193;51.032;6.356;2023-03-04T00:49:51;2.40;99.90
10296;DHT22;5193;51.032;6.356;2023-03-04T00:52:16;2.30;99.90
10296;DHT22;5193;51.032;6.356;2023-03-04T00:54:42;2.30;99.90
10296;DHT22;5193;51.032;6.356;2023-03-04T00:57:07;2.40;99.90
10296;DHT22;5193;51.032;6.356;2023-03-04T00:59:33;2.40;99.90
10296;DHT22;5193;51.032;6.356;2023-03-04T01:01:59;2.30;99.90
10296;DHT22;5193;51.032;6.356;2023-03-04T01:04:25;2.30;99.90
10296;DHT22;5193;51.032;6.356;2023-03-04T01:06:50;2.40;99.90
10296;DHT22;5193;51.032;6.356;2023-03-04T01:09:16;2.40;99.90
10296;DHT22;5193;51.032;6.356;2023-03-04T01:11:42;2.40;99.90
10296;DHT22;5193;51.032;6.356;2023-03-04T01:14:07;2.40;99.90
10296;DHT22;5193;51.032;6.356;2023-03-04T01:16:33;2.40;99.90
10296;DHT22;5193;51.032;6.356;2023-03-04T01:18:59;2.40;99.90
10296;DHT22;5193;51.032;6.356;2023-03-04T01:21:24;2.40;99.90
10296;DHT22;5193;51.032;6.356;2023-03-04T01:23:50;2.40;99.90
10296;DHT22;5193;51.032;6.356;2023-03-04T01:26:16;2.40;99.90
10296;DHT22;5193;51.032;6.356;2023-03-04T01:28:41;2.40;99.90
10296;DHT22;5193;51.032;6.356;2023-03-04T01:31:07;2.40;99.90
10296;DHT22;5193;51.032;6.356;2023-03-04T01:33:33;2.40;99.90
10296;DHT22;5193;51.032;6.356;2023-03-04T01:35:59;2.40;99.90
10296;DHT22;5193;51.032;6.356;2023-03-04T01:38:25;2.40;99.90
10296;DHT22;5193;51.032;6.356;2023-03-04T01:40:51;2.40;99.90
10296;DHT22;5193;51.032;6.356;2023-03-04T01:43:23;2.50;99.90
10296;DHT22;5193;51.032;6.356;2023-03-04T01:45:51;2.40;99.90
10296;DHT22;5193;51.032;6.356;2023-03-04T01:48:20;2.50;99.90
10296;DHT22;5193;51.032;6.356;2023-03-04T01:50:46;2.50;99.90
10296;DHT22;5193;51.032;6.356;2023-03-04T01:53:24;2.40;99.90
10296;DHT22;5193;51.032;6.356;2023-03-04T01:55:52;2.50;99.90
10296;DHT22;5193;51.032;6.356;2023-03-04T01:58:19;2.50;99.90
10296;DHT22;5193;51.032;6.356;2023-03-04T02:00:45;2.50;99.90
10296;DHT22;5193;51.032;6.356;2023-03-04T02:03:14;2.50;99.90
10296;DHT22;5193;51.032;6.356;2023-03-04T02:05:44;2.50;99.90
10296;DHT22;5193;51.032;6.356;2023-03-04T02:08:12;2.50;99.90
10296;DHT22;5193;51.032;6.356;2023-03-04T02:10:39;2.50;99.90
10296;DHT22;5193;51.032;6.356;2023-03-04T02:13:05;2.50;99.90
10296;DHT22;5193;51.032;6.356;2023-03-04T02:15:30;2.60;99.90
10296;DHT22;5193;51.032;6.356;2023-03-04T02:17:56;2.50;99.90
10296;DHT22;5193;51.032;6.356;2023-03-04T02:23:47;2.50;99.90
10296;DHT22;5193;51.032;6.356;2023-03-04T02:26:15;2.60;99.90
10296;DHT22;5193;51.032;6.356;2023-03-04T02:28:41;2.50;99.90
10296;DHT22;5193;51.032;6.356;2023-03-04T02:33:52;2.50;99.90
10296;DHT22;5193;51.032;6.356;2023-03-04T02:36:18;2.50;99.90
10296;DHT22;5193;51.032;6.356;2023-03-04T02:38:44;2.60;99.90
10296;DHT22;5193;51.032;6.356;2023-03-04T02:41:15;2.60;99.90
10296;DHT22;5193;51.032;6.356;2023-03-04T02:43:44;2.60;99.90
10296;DHT22;5193;51.032;6.356;2023-03-04T02:46:12;2.60;99.90
10296;DHT22;5193;51.032;6.356;2023-03-04T02:48:37;2.60;99.90
10296;DHT22;5193;51.032;6.356;2023-03-04T02:51:03;2.60;99.90
10296;DHT22;5193;51.032;6.356;2023-03-04T02:53:29;2.60;99.90
10296;DHT22;5193;51.032;6.356;2023-03-04T02:55:54;2.60;99.90
10296;DHT22;5193;51.032;6.356;2023-03-04T02:58:20;2.60;99.90
10296;DHT22;5193;51.032;6.356;2023-03-04T03:00:46;2.60;99.90
10296;DHT22;5193;51.032;6.356;2023-03-04T03:03:12;2.60;99.90
10296;DHT22;5193;51.032;6.356;2023-03-04T03:05:38;2.60;99.90
10296;DHT22;5193;51.032;6.356;2023-03-04T03:08:04;2.60;99.90
10296;DHT22;5193;51.032;6.356;2023-03-04T03:10:30;2.60;99.90
10296;DHT22;5193;51.032;6.356;2023-03-04T03:12:55;2.60;99.90
10296;DHT22;5193;51.032;6.356;2023-03-04T03:15:21;2.60;99.90
10296;DHT22;5193;51.032;6.356;2023-03-04T03:17:47;2.60;99.90
10296;DHT22;5193;51.032;6.356;2023-03-04T03:20:14;2.60;99.90
10296;DHT22;5193;51.032;6.356;2023-03-04T03:22:40;2.60;99.90
10296;DHT22;5193;51.032;6.356;2023-03-04T03:25:06;2.60;99.90
10296;DHT22;5193;51.032;6.356;2023-03-04T03:27:32;2.60;99.90
10296;DHT22;5193;51.032;6.356;2023-03-04T03:29:58;2.60;99.90
10296;DHT22;5193;51.032;6.356;2023-03-04T03:32:24;2.60;99.90
10296;DHT22;5193;51.032;6.356;2023-03-04T03:34:49;2.60;99.90
10296;DHT22;5193;51.032;6.356;2023-03-04T03:37:15;2.60;99.90
10296;DHT22;5193;51.032;6.356;2023-03-04T03:39:41;2.60;99.90
10296;DHT22;5193;51.032;6.356;2023-03-04T03:42:06;2.60;99.90
10296;DHT22;5193;51.032;6.356;2023-03-04T03:44:32;2.70;99.90
10296;DHT22;5193;51.032;6.356;2023-03-04T03:46:57;2.70;99.90
10296;DHT22;5193;51.032;6.356;2023-03-04T03:49:23;2.70;99.90
10296;DHT22;5193;51.032;6.356;2023-03-04T03:51:48;2.70;99.90
10296;DHT22;5193;51.032;6.356;2023-03-04T03:54:14;2.70;99.90
10296;DHT22;5193;51.032;6.356;2023-03-04T03:56:40;2.70;99.90
10296;DHT22;5193;51.032;6.356;2023-03-04T03:59:05;2.70;99.90
10296;DHT22;5193;51.032;6.356;2023-03-04T04:01:31;2.70;99.90
10296;DHT22;5193;51.032;6.356;2023-03-04T04:03:58;2.70;99.90
10296;DHT22;5193;51.032;6.356;2023-03-04T04:06:24;2.70;99.90
10296;DHT22;5193;51.032;6.356;2023-03-04T04:08:49;2.70;99.90
10296;DHT22;5193;51.032;6.356;2023-03-04T04:11:15;2.70;99.90
10296;DHT22;5193;51.032;6.356;2023-03-04T04:13:40;2.70;99.90
10296;DHT22;5193;51.032;6.356;2023-03-04T04:16:06;2.70;99.90
10296;DHT22;5193;51.032;6.356;2023-03-04T04:18:32;2.70;99.90
10296;DHT22;5193;51.032;6.356;2023-03-04T04:20:58;2.80;99.90
10296;DHT22;5193;51.032;6.356;2023-03-04T04:23:23;2.70;99.90
10296;DHT22;5193;51.032;6.356;2023-03-04T04:25:49;2.70;99.90
10296;DHT22;5193;51.032;6.356;2023-03-04T04:28:14;2.80;99.90
10296;DHT22;5193;51.032;6.356;2023-03-04T04:30:40;2.80;99.90
10296;DHT22;5193;51.032;6.356;2023-03-04T04:33:05;2.80;99.90
10296;DHT22;5193;51.032;6.356;2023-03-04T04:35:32;2.80;99.90
10296;DHT22;5193;51.032;6.356;2023-03-04T04:37:59;2.80;99.90
10296;DHT22;5193;51.032;6.356;2023-03-04T04:40:25;2.90;99.90
10296;DHT22;5193;51.032;6.356;2023-03-04T04:42:50;2.90;99.90
10296;DHT22;5193;51.032;6.356;2023-03-04T04:45:16;2.90;99.90
10296;DHT22;5193;51.032;6.356;2023-03-04T04:47:41;2.90;99.90
10296;DHT22;5193;51.032;6.356;2023-03-04T04:50:08;2.90;99.90
10296;DHT22;5193;51.032;6.356;2023-03-04T04:52:34;2.90;99.90
10296;DHT22;5193;51.032;6.356;2023-03-04T04:54:59;2.90;99.90
10296;DHT22;5193;51.032;6.356;2023-03-04T04:57:25;3.00;99.90
10296;DHT22;5193;51.032;6.356;2023-03-04T04:59:50;3.00;99.90
10296;DHT22;5193;51.032;6.356;2023-03-04T05:02:16;3.10;99.90
10296;DHT22;5193;51.032;6.356;2023-03-04T05:04:42;3.10;99.90
10296;DHT22;5193;51.032;6.356;2023-03-04T05:07:07;3.10;99.90
10296;DHT22;5193;51.032;6.356;2023-03-04T05:09:33;3.20;99.90
10296;DHT22;5193;51.032;6.356;2023-03-04T05:11:58;3.20;99.90
10296;DHT22;5193;51.032;6.356;2023-03-04T05:14:24;3.20;99.90
10296;DHT22;5193;51.032;6.356;2023-03-04T05:16:50;3.20;99.90
10296;DHT22;5193;51.032;6.356;2023-03-04T05:19:17;3.20;99.90
10296;DHT22;5193;51.032;6.356;2023-03-04T05:21:43;3.30;99.90
10296;DHT22;5193;51.032;6.356;2023-03-04T05:24:09;3.30;99.90
10296;DHT22;5193;51.032;6.356;2023-03-04T05:26:35;3.40;99.90
10296;DHT22;5193;51.032;6.356;2023-03-04T05:29:01;3.30;99.90
10296;DHT22;5193;51.032;6.356;2023-03-04T05:31:27;3.30;99.90
10296;DHT22;5193;51.032;6.356;2023-03-04T05:33:52;3.30;99.90
10296;DHT22;5193;51.032;6.356;2023-03-04T05:36:18;3.40;99.90
10296;DHT22;5193;51.032;6.356;2023-03-04T05:38:44;3.30;99.90
10296;DHT22;5193;51.032;6.356;2023-03-04T05:41:09;3.30;99.90
10296;DHT22;5193;51.032;6.356;2023-03-04T05:43:35;3.30;99.90
10296;DHT22;5193;51.032;6.356;2023-03-04T05:46:03;3.30;99.90
10296;DHT22;5193;51.032;6.356;2023-03-04T05:48:29;3.30;99.90
10296;DHT22;5193;51.032;6.356;2023-03-04T05:50:56;3.30;99.90
10296;DHT22;5193;51.032;6.356;2023-03-04T05:53:22;3.40;99.90
10296;DHT22;5193;51.032;6.356;2023-03-04T05:55:48;3.40;99.90
10296;DHT22;5193;51.032;6.356;2023-03-04T05:58:14;3.40;99.90
10296;DHT22;5193;51.032;6.356;2023-03-04T06:00:40;3.40;99.90
10296;DHT22;5193;51.032;6.356;2023-03-04T06:03:05;3.50;99.90
10296;DHT22;5193;51.032;6.356;2023-03-04T06:05:31;3.40;99.90
10296;DHT22;5193;51.032;6.356;2023-03-04T06:07:57;3.50;99.90
10296;DHT22;5193;51.032;6.356;2023-03-04T06:10:22;3.50;99.90
10296;DHT22;5193;51.032;6.356;2023-03-04T06:12:48;3.60;99.90
10296;DHT22;5193;51.032;6.356;2023-03-04T06:15:13;3.50;99.90
10296;DHT22;5193;51.032;6.356;2023-03-04T06:17:40;3.60;99.90
10296;DHT22;5193;51.032;6.356;2023-03-04T06:20:07;3.60;99.90
10296;DHT22;5193;51.032;6.356;2023-03-04T06:22:33;3.60;99.90
10296;DHT22;5193;51.032;6.356;2023-03-04T06:24:59;3.60;99.90
10296;DHT22;5193;51.032;6.356;2023-03-04T06:27:25;3.60;99.90
10296;DHT22;5193;51.032;6.356;2023-03-04T06:29:51;3.60;99.90
10296;DHT22;5193;51.032;6.356;2023-03-04T06:32:16;3.70;99.90
10296;DHT22;5193;51.032;6.356;2023-03-04T06:34:42;3.70;99.90
10296;DHT22;5193;51.032;6.356;2023-03-04T06:37:08;3.70;99.90
10296;DHT22;5193;51.032;6.356;2023-03-04T06:39:34;3.70;99.90
10296;DHT22;5193;51.032;6.356;2023-03-04T06:41:59;3.70;99.90
10296;DHT22;5193;51.032;6.356;2023-03-04T06:44:25;3.70;99.90
10296;DHT22;5193;51.032;6.356;2023-03-04T06:46:50;3.70;99.90
10296;DHT22;5193;51.032;6.356;2023-03-04T06:49:16;3.70;99.90
10296;DHT22;5193;51.032;6.356;2023-03-04T06:51:42;3.70;99.90
10296;DHT22;5193;51.032;6.356;2023-03-04T06:54:08;3.70;99.90
10296;DHT22;5193;51.032;6.356;2023-03-04T06:56:34;3.70;99.90
10296;DHT22;5193;51.032;6.356;2023-03-04T06:58:59;4.60;99.90
10296;DHT22;5193;51.032;6.356;2023-03-04T07:01:26;3.70;99.90
10296;DHT22;5193;51.032;6.356;2023-03-04T07:03:53;3.80;99.90
10296;DHT22;5193;51.032;6.356;2023-03-04T07:06:21;3.80;99.90
10296;DHT22;5193;51.032;6.356;2023-03-04T07:08:47;3.80;99.90
10296;DHT22;5193;51.032;6.356;2023-03-04T07:11:13;3.80;99.90
10296;DHT22;5193;51.032;6.356;2023-03-04T07:13:39;3.90;99.90
10296;DHT22;5193;51.032;6.356;2023-03-04T07:16:06;3.90;99.90
10296;DHT22;5193;51.032;6.356;2023-03-04T07:18:32;3.90;99.90
10296;DHT22;5193;51.032;6.356;2023-03-04T07:20:58;3.90;99.90
10296;DHT22;5193;51.032;6.356;2023-03-04T07:23:23;3.90;99.90
10296;DHT22;5193;51.032;6.356;2023-03-04T07:25:49;4.00;99.90
10296;DHT22;5193;51.032;6.356;2023-03-04T07:28:16;4.00;99.90
10296;DHT22;5193;51.032;6.356;2023-03-04T07:30:41;4.00;99.90
10296;DHT22;5193;51.032;6.356;2023-03-04T07:33:07;4.00;99.90
10296;DHT22;5193;51.032;6.356;2023-03-04T07:35:32;4.00;99.90
10296;DHT22;5193;51.032;6.356;2023-03-04T07:37:58;4.00;99.90
10296;DHT22;5193;51.032;6.356;2023-03-04T07:40:24;4.10;99.90
10296;DHT22;5193;51.032;6.356;2023-03-04T07:42:50;4.10;99.90
10296;DHT22;5193;51.032;6.356;2023-03-04T07:45:16;4.10;99.90
10296;DHT22;5193;51.032;6.356;2023-03-04T07:47:42;4.10;99.90
10296;DHT22;5193;51.032;6.356;2023-03-04T07:50:09;4.10;99.90
10296;DHT22;5193;51.032;6.356;2023-03-04T07:52:42;4.10;99.90
10296;DHT22;5193;51.032;6.356;2023-03-04T07:55:09;4.10;99.90
10296;DHT22;5193;51.032;6.356;2023-03-04T07:57:37;4.20;99.90
10296;DHT22;5193;51.032;6.356;2023-03-04T08:00:03;4.20;99.90
10296;DHT22;5193;51.032;6.356;2023-03-04T08:02:29;4.20;99.90
10296;DHT22;5193;51.032;6.356;2023-03-04T08:04:55;4.20;99.90
10296;DHT22;5193;51.032;6.356;2023-03-04T08:07:20;4.20;99.90
10296;DHT22;5193;51.032;6.356;2023-03-04T08:09:46;4.30;99.90
10296;DHT22;5193;51.032;6.356;2023-03-04T08:12:12;4.30;99.90
10296;DHT22;5193;51.032;6.356;2023-03-04T08:14:37;4.30;99.90
10296;DHT22;5193;51.032;6.356;2023-03-04T08:17:03;4.40;99.90
10296;DHT22;5193;51.032;6.356;2023-03-04T08:19:29;4.40;99.90
10296;DHT22;5193;51.032;6.356;2023-03-04T08:21:54;4.50;99.90
10296;DHT22;5193;51.032;6.356;2023-03-04T08:24:20;4.50;99.90
10296;DHT22;5193;51.032;6.356;2023-03-04T08:26:48;4.50;99.90
10296;DHT22;5193;51.032;6.356;2023-03-04T08:29:17;4.60;99.90
10296;DHT22;5193;51.032;6.356;2023-03-04T08:31:44;4.70;99.90
10296;DHT22;5193;51.032;6.356;2023-03-04T08:34:11;4.70;99.90
10296;DHT22;5193;51.032;6.356;2023-03-04T08:36:37;4.80;99.90
10296;DHT22;5193;51.032;6.356;2023-03-04T08:39:04;4.80;99.90
10296;DHT22;5193;51.032;6.356;2023-03-04T08:41:30;4.80;99.90
10296;DHT22;5193;51.032;6.356;2023-03-04T08:43:56;4.90;99.90
10296;DHT22;5193;51.032;6.356;2023-03-04T08:46:21;5.00;99.90
10296;DHT22;5193;51.032;6.356;2023-03-04T08:48:47;5.00;99.90
10296;DHT22;5193;51.032;6.356;2023-03-04T08:51:14;5.00;99.90
10296;DHT22;5193;51.032;6.356;2023-03-04T08:53:40;5.00;99.90
10296;DHT22;5193;51.032;6.356;2023-03-04T08:56:06;5.10;99.90
10296;DHT22;5193;51.032;6.356;2023-03-04T08:58:33;5.10;99.90
10296;DHT22;5193;51.032;6.356;2023-03-04T09:00:59;5.10;99.90
10296;DHT22;5193;51.032;6.356;2023-03-04T09:03:26;5.10;99.90
10296;DHT22;5193;51.032;6.356;2023-03-04T09:05:52;5.10;99.90
10296;DHT22;5193;51.032;6.356;2023-03-04T09:08:17;5.20;99.90
10296;DHT22;5193;51.032;6.356;2023-03-04T09:10:44;5.30;99.90
10296;DHT22;5193;51.032;6.356;2023-03-04T09:13:10;5.40;99.90
10296;DHT22;5193;51.032;6.356;2023-03-04T09:15:37;5.50;99.90
10296;DHT22;5193;51.032;6.356;2023-03-04T09:18:04;5.60;99.90
10296;DHT22;5193;51.032;6.356;2023-03-04T09:20:31;5.70;99.90
10296;DHT22;5193;51.032;6.356;2023-03-04T09:22:56;5.70;99.90
10296;DHT22;5193;51.032;6.356;2023-03-04T09:25:22;5.80;99.90
10296;DHT22;5193;51.032;6.356;2023-03-04T09:27:48;5.90;99.90
10296;DHT22;5193;51.032;6.356;2023-03-04T09:30:14;5.80;99.90
10296;DHT22;5193;51.032;6.356;2023-03-04T09:32:40;5.90;99.90
10296;DHT22;5193;51.032;6.356;2023-03-04T09:35:06;5.90;99.90
10296;DHT22;5193;51.032;6.356;2023-03-04T09:37:32;6.00;99.90
10296;DHT22;5193;51.032;6.356;2023-03-04T09:39:57;6.00;99.90
10296;DHT22;5193;51.032;6.356;2023-03-04T09:42:42;6.10;99.90
10296;DHT22;5193;51.032;6.356;2023-03-04T09:45:15;6.10;99.90
10296;DHT22;5193;51.032;6.356;2023-03-04T09:47:41;6.10;99.90
10296;DHT22;5193;51.032;6.356;2023-03-04T09:50:10;6.20;99.90
10296;DHT22;5193;51.032;6.356;2023-03-04T09:53:18;6.20;99.90
10296;DHT22;5193;51.032;6.356;2023-03-04T09:55:49;6.20;99.90
10296;DHT22;5193;51.032;6.356;2023-03-04T10:01:10;6.30;99.90
10296;DHT22;5193;51.032;6.356;2023-03-04T10:03:45;6.40;99.90
10296;DHT22;5193;51.032;6.356;2023-03-04T10:06:18;6.50;99.90
10296;DHT22;5193;51.032;6.356;2023-03-04T10:08:51;6.70;99.90
10296;DHT22;5193;51.032;6.356;2023-03-04T10:21:44;6.70;99.90
10296;DHT22;5193;51.032;6.356;2023-03-04T10:24:14;6.70;99.90
10296;DHT22;5193;51.032;6.356;2023-03-04T10:26:44;6.80;99.90
10296;DHT22;5193;51.032;6.356;2023-03-04T10:29:22;6.90;99.90
10296;DHT22;5193;51.032;6.356;2023-03-04T10:31:49;7.10;99.90
10296;DHT22;5193;51.032;6.356;2023-03-04T10:34:16;7.30;99.90
10296;DHT22;5193;51.032;6.356;2023-03-04T10:36:58;7.40;99.90
10296;DHT22;5193;51.032;6.356;2023-03-04T10:39:37;7.60;99.90
10296;DHT22;5193;51.032;6.356;2023-03-04T10:44:56;7.90;99.90
10296;DHT22;5193;51.032;6.356;2023-03-04T10:47:27;7.90;99.90
10296;DHT22;5193;51.032;6.356;2023-03-04T10:49:58;7.90;99.90
10296;DHT22;5193;51.032;6.356;2023-03-04T10:52:33;7.90;99.90
10296;DHT22;5193;51.032;6.356;2023-03-04T10:55:03;7.90;99.90
10296;DHT22;5193;51.032;6.356;2023-03-04T10:57:37;7.90;99.90
10296;DHT22;5193;51.032;6.356;2023-03-04T11:02:48;7.60;99.90
10296;DHT22;5193;51.032;6.356;2023-03-04T11:07:42;7.60;99.90
10296;DHT22;5193;51.032;6.356;2023-03-04T11:13:19;7.60;99.90
10296;DHT22;5193;51.032;6.356;2023-03-04T11:15:56;7.60;99.90
10296;DHT22;5193;51.032;6.356;2023-03-04T11:18:40;7.60;99.90
10296;DHT22;5193;51.032;6.356;2023-03-04T11:21:14;7.60;99.90
10296;DHT22;5193;51.032;6.356;2023-03-04T11:26:20;7.60;99.90
10296;DHT22;5193;51.032;6.356;2023-03-04T11:28:59;7.50;99.90
10296;DHT22;5193;51.032;6.356;2023-03-04T11:31:37;7.50;99.90
10296;DHT22;5193;51.032;6.356;2023-03-04T11:34:18;7.40;99.90
10296;DHT22;5193;51.032;6.356;2023-03-04T11:37:12;7.40;99.90
10296;DHT22;5193;51.032;6.356;2023-03-04T11:42:32;7.50;99.90
10296;DHT22;5193;51.032;6.356;2023-03-04T11:44:59;7.60;99.90
10296;DHT22;5193;51.032;6.356;2023-03-04T11:47:35;7.70;99.90
10296;DHT22;5193;51.032;6.356;2023-03-04T11:56:03;7.90;99.90
10296;DHT22;5193;51.032;6.356;2023-03-04T11:58:41;7.80;99.90
10296;DHT22;5193;51.032;6.356;2023-03-04T12:18:04;7.80;99.90
10296;DHT22;5193;51.032;6.356;2023-03-04T12:20:47;7.80;99.90
10296;DHT22;5193;51.032;6.356;2023-03-04T12:31:15;7.70;99.90
10296;DHT22;5193;51.032;6.356;2023-03-04T12:36:34;7.60;99.90
10296;DHT22;5193;51.032;6.356;2023-03-04T12:39:19;7.60;99.90
10296;DHT22;5193;51.032;6.356;2023-03-04T12:55:44;8.00;99.90
10296;DHT22;5193;51.032;6.356;2023-03-04T12:58:20;8.10;99.90
10296;DHT22;5193;51.032;6.356;2023-03-04T13:01:05;8.10;99.90
10296;DHT22;5193;51.032;6.356;2023-03-04T13:04:00;8.10;99.90
10296;DHT22;5193;51.032;6.356;2023-03-04T13:11:51;8.30;99.90
10296;DHT22;5193;51.032;6.356;2023-03-04T13:16:52;8.20;99.90
10296;DHT22;5193;51.032;6.356;2023-03-04T13:19:41;8.20;99.90
10296;DHT22;5193;51.032;6.356;2023-03-04T13:24:56;8.20;99.90
10296;DHT22;5193;51.032;6.356;2023-03-04T13:27:48;8.20;99.90
10296;DHT22;5193;51.032;6.356;2023-03-04T13:38:35;8.10;99.90
10296;DHT22;5193;51.032;6.356;2023-03-04T13:43:48;8.10;99.90
10296;DHT22;5193;51.032;6.356;2023-03-04T13:49:01;8.10;99.90
10296;DHT22;5193;51.032;6.356;2023-03-04T13:51:36;8.10;99.90
10296;DHT22;5193;51.032;6.356;2023-03-04T13:54:12;8.00;99.90
10296;DHT22;5193;51.032;6.356;2023-03-04T14:01:55;8.00;99.90
10296;DHT22;5193;51.032;6.356;2023-03-04T14:04:33;7.90;99.90
10296;DHT22;5193;51.032;6.356;2023-03-04T14:07:00;7.90;99.90
10296;DHT22;5193;51.032;6.356;2023-03-04T14:09:30;7.90;99.90
10296;DHT22;5193;51.032;6.356;2023-03-04T14:11:58;7.90;99.90
10296;DHT22;5193;51.032;6.356;2023-03-04T14:14:29;8.00;99.90
10296;DHT22;5193;51.032;6.356;2023-03-04T14:16:59;8.00;99.90
10296;DHT22;5193;51.032;6.356;2023-03-04T14:19:35;8.10;99.90
10296;DHT22;5193;51.032;6.356;2023-03-04T14:22:19;8.10;99.90
10296;DHT22;5193;51.032;6.356;2023-03-04T14:25:39;8.10;99.90
10296;DHT22;5193;51.032;6.356;2023-03-04T14:27:40;8.10;99.90
10296;DHT22;5193;51.032;6.356;2023-03-04T14:30:21;8.10;99.90
10296;DHT22;5193;51.032;6.356;2023-03-04T14:32:47;8.10;99.90
10296;DHT22;5193;51.032;6.356;2023-03-04T14:35:23;8.10;99.90
10296;DHT22;5193;51.032;6.356;2023-03-04T14:38:06;8.10;99.90
10296;DHT22;5193;51.032;6.356;2023-03-04T14:40:39;8.00;99.90
10296;DHT22;5193;51.032;6.356;2023-03-04T14:43:18;8.00;99.90
10296;DHT22;5193;51.032;6.356;2023-03-04T14:45:54;8.00;99.90
10296;DHT22;5193;51.032;6.356;2023-03-04T14:48:27;8.00;99.90
10296;DHT22;5193;51.032;6.356;2023-03-04T14:50:55;8.00;99.90
10296;DHT22;5193;51.032;6.356;2023-03-04T14:53:23;7.90;99.90
10296;DHT22;5193;51.032;6.356;2023-03-04T14:56:05;7.90;99.90
10296;DHT22;5193;51.032;6.356;2023-03-04T14:58:38;7.80;99.90
10296;DHT22;5193;51.032;6.356;2023-03-04T15:01:20;7.80;99.90
10296;DHT22;5193;51.032;6.356;2023-03-04T15:04:10;7.80;99.90
10296;DHT22;5193;51.032;6.356;2023-03-04T15:06:48;7.70;99.90
10296;DHT22;5193;51.032;6.356;2023-03-04T15:09:24;7.70;99.90
10296;DHT22;5193;51.032;6.356;2023-03-04T15:11:55;7.70;99.90
10296;DHT22;5193;51.032;6.356;2023-03-04T15:14:42;7.60;99.90
10296;DHT22;5193;51.032;6.356;2023-03-04T15:17:30;7.60;99.90
10296;DHT22;5193;51.032;6.356;2023-03-04T15:25:12;7.60;99.90
10296;DHT22;5193;51.032;6.356;2023-03-04T15:27:40;7.60;99.90
10296;DHT22;5193;51.032;6.356;2023-03-04T15:30:12;7.50;99.90
10296;DHT22;5193;51.032;6.356;2023-03-04T15:32:39;7.50;99.90
10296;DHT22;5193;51.032;6.356;2023-03-04T15:35:05;7.50;99.90
10296;DHT22;5193;51.032;6.356;2023-03-04T15:37:30;7.40;99.90
10296;DHT22;5193;51.032;6.356;2023-03-04T15:39:56;7.40;99.90
10296;DHT22;5193;51.032;6.356;2023-03-04T15:42:22;7.40;99.90
10296;DHT22;5193;51.032;6.356;2023-03-04T15:44:48;7.40;99.90
10296;DHT22;5193;51.032;6.356;2023-03-04T15:47:14;7.40;99.90
10296;DHT22;5193;51.032;6.356;2023-03-04T15:49:41;7.40;99.90
10296;DHT22;5193;51.032;6.356;2023-03-04T15:52:13;7.40;99.90
10296;DHT22;5193;51.032;6.356;2023-03-04T15:54:40;7.30;99.90
10296;DHT22;5193;51.032;6.356;2023-03-04T15:57:16;7.30;99.90
10296;DHT22;5193;51.032;6.356;2023-03-04T15:59:42;7.30;99.90
10296;DHT22;5193;51.032;6.356;2023-03-04T16:02:14;7.30;99.90
10296;DHT22;5193;51.032;6.356;2023-03-04T16:04:43;7.30;99.90
10296;DHT22;5193;51.032;6.356;2023-03-04T16:07:14;7.20;99.90
10296;DHT22;5193;51.032;6.356;2023-03-04T16:09:41;7.20;99.90
10296;DHT22;5193;51.032;6.356;2023-03-04T16:12:11;7.20;99.90
10296;DHT22;5193;51.032;6.356;2023-03-04T16:14:37;7.10;99.90
10296;DHT22;5193;51.032;6.356;2023-03-04T16:17:03;7.10;99.90
10296;DHT22;5193;51.032;6.356;2023-03-04T16:19:29;7.10;99.90
10296;DHT22;5193;51.032;6.356;2023-03-04T16:21:55;7.10;99.90
10296;DHT22;5193;51.032;6.356;2023-03-04T16:24:20;7.10;99.90
10296;DHT22;5193;51.032;6.356;2023-03-04T16:26:46;7.00;99.90
10296;DHT22;5193;51.032;6.356;2023-03-04T16:29:14;7.00;99.90
10296;DHT22;5193;51.032;6.356;2023-03-04T16:31:40;7.00;99.90
10296;DHT22;5193;51.032;6.356;2023-03-04T16:34:05;6.90;99.90
10296;DHT22;5193;51.032;6.356;2023-03-04T16:36:31;6.90;99.90
10296;DHT22;5193;51.032;6.356;2023-03-04T16:39:00;6.90;99.90
10296;DHT22;5193;51.032;6.356;2023-03-04T16:41:28;6.90;99.90
10296;DHT22;5193;51.032;6.356;2023-03-04T16:43:58;6.90;99.90
10296;DHT22;5193;51.032;6.356;2023-03-04T16:46:24;6.90;99.90
10296;DHT22;5193;51.032;6.356;2023-03-04T16:48:49;6.80;99.90
10296;DHT22;5193;51.032;6.356;2023-03-04T16:51:20;6.80;99.90
10296;DHT22;5193;51.032;6.356;2023-03-04T16:53:57;6.80;99.90
10296;DHT22;5193;51.032;6.356;2023-03-04T16:56:24;6.80;99.90
10296;DHT22;5193;51.032;6.356;2023-03-04T16:58:50;6.80;99.90
10296;DHT22;5193;51.032;6.356;2023-03-04T17:01:23;6.80;99.90
10296;DHT22;5193;51.032;6.356;2023-03-04T17:03:50;6.70;99.90
10296;DHT22;5193;51.032;6.356;2023-03-04T17:06:16;6.70;99.90
10296;DHT22;5193;51.032;6.356;2023-03-04T17:08:42;6.70;99.90
10296;DHT22;5193;51.032;6.356;2023-03-04T17:11:26;6.70;99.90
10296;DHT22;5193;51.032;6.356;2023-03-04T17:13:52;6.70;99.90
10296;DHT22;5193;51.032;6.356;2023-03-04T17:16:18;6.60;99.90
10296;DHT22;5193;51.032;6.356;2023-03-04T17:18:44;6.60;99.90
10296;DHT22;5193;51.032;6.356;2023-03-04T17:21:12;6.60;99.90
10296;DHT22;5193;51.032;6.356;2023-03-04T17:23:38;6.60;99.90
10296;DHT22;5193;51.032;6.356;2023-03-04T17:26:04;6.60;99.90
10296;DHT22;5193;51.032;6.356;2023-03-04T17:28:30;6.60;99.90
10296;DHT22;5193;51.032;6.356;2023-03-04T17:30:56;6.50;99.90
10296;DHT22;5193;51.032;6.356;2023-03-04T17:33:22;6.50;99.90
10296;DHT22;5193;51.032;6.356;2023-03-04T17:35:48;6.50;99.90
10296;DHT22;5193;51.032;6.356;2023-03-04T17:38:14;6.50;99.90
10296;DHT22;5193;51.032;6.356;2023-03-04T17:40:40;6.50;99.90
10296;DHT22;5193;51.032;6.356;2023-03-04T17:43:06;6.50;99.90
10296;DHT22;5193;51.032;6.356;2023-03-04T17:45:39;6.50;99.90
10296;DHT22;5193;51.032;6.356;2023-03-04T17:48:06;6.40;99.90
10296;DHT22;5193;51.032;6.356;2023-03-04T17:50:32;6.40;99.90
10296;DHT22;5193;51.032;6.356;2023-03-04T17:52:58;6.40;99.90
10296;DHT22;5193;51.032;6.356;2023-03-04T17:55:23;6.40;99.90
10296;DHT22;5193;51.032;6.356;2023-03-04T17:57:49;6.40;99.90
10296;DHT22;5193;51.032;6.356;2023-03-04T18:00:18;6.40;99.90
10296;DHT22;5193;51.032;6.356;2023-03-04T18:02:44;6.40;99.90
10296;DHT22;5193;51.032;6.356;2023-03-04T18:05:09;6.40;99.90
10296;DHT22;5193;51.032;6.356;2023-03-04T18:07:35;6.40;99.90